createdAt,value
2023-04-17T00:11:12.967Z,-0.26
2023-04-17T00:29:10.234Z,-0.27
2023-04-17T00:34:43.923Z,-0.02
2023-04-17T00:45:54.998Z,-0.13
2023-04-17T00:51:20.237Z,-0.11
2023-04-17T00:56:44.600Z,-0.22
2023-04-17T01:02:06.769Z,-0.28
2023-04-17T01:07:31.052Z,-0.29
2023-04-17T01:13:07.508Z,-0.29
2023-04-17T01:18:31.853Z,-0.31
2023-04-17T01:23:54.441Z,-0.36
2023-04-17T01:29:20.403Z,-0.30
2023-04-17T01:34:44.125Z,-0.20
2023-04-17T01:40:07.893Z,-0.22
2023-04-17T01:45:30.701Z,-0.24
2023-04-17T01:50:53.247Z,-0.30
2023-04-17T01:56:15.820Z,-0.33
2023-04-17T02:01:37.941Z,-0.35
2023-04-17T02:07:00.198Z,-0.38
2023-04-17T02:12:22.917Z,-0.42
2023-04-17T02:17:46.022Z,-0.33
2023-04-17T02:23:08.621Z,-0.34
2023-04-17T02:28:33.611Z,-0.38
2023-04-17T02:33:58.460Z,-0.33
2023-04-17T02:39:21.946Z,-0.39
2023-04-17T02:44:44.090Z,-0.31
2023-04-17T02:50:07.274Z,-0.26
2023-04-17T02:55:39.954Z,-0.08
2023-04-17T03:01:05.661Z,-0.14
2023-04-17T03:06:31.833Z,0.11
2023-04-17T03:11:53.944Z,0.15
2023-04-17T03:17:16.834Z,0.28
2023-04-17T03:22:40.207Z,0.57
2023-04-17T03:28:02.805Z,0.82
2023-04-17T03:33:28.037Z,1.10
2023-04-17T03:38:53.059Z,1.34
2023-04-17T03:44:19.497Z,1.64
2023-04-17T03:49:41.507Z,1.77
2023-04-17T03:55:06.120Z,2.29
2023-04-17T04:00:29.173Z,2.70
2023-04-17T04:05:56.294Z,2.90
2023-04-17T04:11:19.168Z,3.11
2023-04-17T04:16:42.007Z,3.29
2023-04-17T04:22:07.306Z,3.84
2023-04-17T04:27:36.604Z,4.92
2023-04-17T04:33:01.851Z,6.19
2023-04-17T04:38:31.587Z,6.46
2023-04-17T04:44:01.869Z,6.63
2023-04-17T04:49:24.736Z,6.89
2023-04-17T04:54:47.001Z,7.00
2023-04-17T05:00:10.980Z,7.62
2023-04-17T05:05:45.987Z,8.04
2023-04-17T05:11:10.407Z,8.32
2023-04-17T05:16:33.604Z,8.08
2023-04-17T05:21:56.042Z,8.17
2023-04-17T05:27:18.991Z,9.32
2023-04-17T05:32:41.607Z,10.09
2023-04-17T05:38:23.448Z,10.88
2023-04-17T05:43:45.773Z,11.39
2023-04-17T05:49:07.989Z,11.89
2023-04-17T05:54:31.002Z,12.64
2023-04-17T05:59:53.531Z,12.74
2023-04-17T06:05:16.955Z,12.71
2023-04-17T06:10:40.357Z,13.15
2023-04-17T06:16:02.786Z,13.53
2023-04-17T06:21:25.037Z,13.91
2023-04-17T06:26:46.939Z,14.42
2023-04-17T06:32:09.487Z,14.63
2023-04-17T06:37:33.182Z,14.36
2023-04-17T06:42:55.647Z,14.05
2023-04-17T06:48:22.259Z,14.01
2023-04-17T06:53:44.476Z,13.93
2023-04-17T06:59:06.665Z,13.94
2023-04-17T07:04:28.766Z,13.87
2023-04-17T07:09:50.642Z,13.89
2023-04-17T07:15:13.429Z,13.87
2023-04-17T07:20:35.698Z,13.94
2023-04-17T07:25:57.446Z,14.21
2023-04-17T07:31:19.846Z,14.36
2023-04-17T07:36:41.984Z,14.29
2023-04-17T07:42:07.973Z,14.41
2023-04-17T07:47:31.486Z,14.66
2023-04-17T07:52:57.488Z,14.56
2023-04-17T07:58:20.118Z,14.47
2023-04-17T08:03:42.166Z,14.56
2023-04-17T08:09:05.488Z,14.79
2023-04-17T08:14:27.757Z,15.07
2023-04-17T08:19:59.291Z,15.32
2023-04-17T08:25:21.379Z,15.28
2023-04-17T08:30:43.170Z,15.56
2023-04-17T08:36:08.415Z,15.80
2023-04-17T08:41:38.949Z,15.48
2023-04-17T08:47:01.388Z,15.38
2023-04-17T08:52:23.246Z,15.25
2023-04-17T08:57:58.533Z,15.20
2023-04-17T09:03:22.646Z,15.09
2023-04-17T09:09:02.282Z,15.03
2023-04-17T09:14:31.463Z,14.92
2023-04-17T09:20:12.606Z,14.85
2023-04-17T09:25:34.833Z,14.79
2023-04-17T09:30:58.557Z,14.64
2023-04-17T09:36:24.840Z,14.77
2023-04-17T09:41:49.588Z,14.87
2023-04-17T09:47:13.624Z,14.96
2023-04-17T09:52:35.931Z,15.18
2023-04-17T09:58:00.270Z,15.27
2023-04-17T10:03:24.887Z,15.13
2023-04-17T10:08:47.614Z,14.98
2023-04-17T10:14:24.354Z,14.95
2023-04-17T10:19:46.436Z,15.06
2023-04-17T10:25:14.756Z,15.22
2023-04-17T10:30:59.405Z,15.53
2023-04-17T10:36:50.556Z,15.65
2023-04-17T10:42:29.048Z,15.66
2023-04-17T10:47:59.251Z,15.56
2023-04-17T10:53:40.974Z,15.60
2023-04-17T10:59:05.573Z,15.42
2023-04-17T11:04:32.547Z,15.28
2023-04-17T11:09:54.906Z,15.22
2023-04-17T11:15:17.350Z,15.28
2023-04-17T11:20:39.432Z,15.17
2023-04-17T11:26:01.491Z,14.99
2023-04-17T11:31:23.946Z,14.84
2023-04-17T11:36:57.635Z,14.88
2023-04-17T11:42:28.836Z,14.72
2023-04-17T11:47:52.978Z,14.76
2023-04-17T11:53:17.063Z,15.05
2023-04-17T11:58:53.219Z,15.24
2023-04-17T12:04:22.592Z,15.20
2023-04-17T12:09:57.288Z,14.98
2023-04-17T12:15:19.699Z,14.96
2023-04-17T12:20:41.543Z,14.99
2023-04-17T12:26:03.841Z,15.11
2023-04-17T12:31:26.093Z,15.16
2023-04-17T12:36:50.980Z,15.29
2023-04-17T12:42:13.549Z,14.99
2023-04-17T12:47:35.821Z,15.08
2023-04-17T12:52:57.941Z,15.10
2023-04-17T12:58:20.041Z,15.13
2023-04-17T13:03:42.408Z,14.99
2023-04-17T13:09:05.432Z,14.92
2023-04-17T13:14:27.650Z,14.83
2023-04-17T13:19:49.741Z,14.96
2023-04-17T13:25:13.539Z,14.91
2023-04-17T13:30:37.610Z,14.54
2023-04-17T13:36:02.214Z,14.69
2023-04-17T13:41:26.564Z,14.55
2023-04-17T13:46:49.441Z,14.75
2023-04-17T13:52:11.788Z,14.92
2023-04-17T13:57:33.375Z,14.81
2023-04-17T14:02:55.881Z,14.71
2023-04-17T14:08:21.394Z,14.65
2023-04-17T14:13:43.323Z,14.71
2023-04-17T14:19:13.185Z,14.77
2023-04-17T14:24:36.398Z,14.73
2023-04-17T14:30:00.622Z,14.69
2023-04-17T14:35:25.987Z,14.47
2023-04-17T14:40:47.944Z,14.35
2023-04-17T14:46:09.864Z,14.20
2023-04-17T14:51:40.367Z,13.88
2023-04-17T14:57:08.299Z,13.93
2023-04-17T15:02:39.005Z,13.87
2023-04-17T15:08:01.409Z,13.86
2023-04-17T15:13:23.175Z,13.61
2023-04-17T15:18:45.149Z,13.58
2023-04-17T15:24:07.409Z,13.41
2023-04-17T15:29:29.342Z,13.17
2023-04-17T15:34:51.564Z,12.97
2023-04-17T15:40:13.487Z,12.98
2023-04-17T15:45:35.577Z,12.84
2023-04-17T15:56:50.491Z,12.41
2023-04-17T16:08:49.344Z,12.22
2023-04-17T16:20:02.628Z,12.07
2023-04-17T16:25:29.225Z,11.89
2023-04-17T16:31:09.129Z,11.61
2023-04-17T16:36:33.202Z,11.57
2023-04-17T16:41:56.758Z,11.19
2023-04-17T16:47:19.057Z,10.94
2023-04-17T16:52:41.717Z,10.62
2023-04-17T16:58:04.879Z,10.23
2023-04-17T17:03:26.701Z,10.16
2023-04-17T17:08:49.051Z,9.84
2023-04-17T17:14:11.418Z,9.56
2023-04-17T17:19:33.534Z,9.21
2023-04-17T17:24:56.625Z,8.96
2023-04-17T17:30:18.867Z,9.07
2023-04-17T17:35:40.569Z,9.07
2023-04-17T17:41:02.596Z,8.97
2023-04-17T17:52:16.182Z,8.83
2023-04-17T17:57:48.421Z,8.87
2023-04-17T18:03:11.718Z,8.68
2023-04-17T18:08:33.389Z,8.75
2023-04-17T18:13:56.321Z,8.72
2023-04-17T18:19:20.843Z,8.63
2023-04-17T18:24:43.173Z,8.67
2023-04-17T18:30:07.145Z,8.56
2023-04-17T18:35:31.265Z,8.44
2023-04-17T18:41:02.101Z,8.37
2023-04-17T18:46:26.981Z,8.57
2023-04-17T18:51:49.614Z,8.39
2023-04-17T18:57:12.025Z,8.46
2023-04-17T19:02:37.703Z,8.35
2023-04-17T19:07:59.561Z,8.19
2023-04-17T19:13:21.719Z,8.27
2023-04-17T19:18:43.826Z,8.13
2023-04-17T19:24:06.345Z,8.08
2023-04-17T19:29:28.661Z,7.82
2023-04-17T19:34:50.523Z,7.89
2023-04-17T19:40:24.430Z,7.68
2023-04-17T19:45:47.691Z,7.68
2023-04-17T19:51:09.943Z,7.78
2023-04-17T19:56:34.912Z,7.86
2023-04-17T20:01:56.869Z,7.81
2023-04-17T20:07:18.875Z,7.79
2023-04-17T20:12:40.472Z,7.77
2023-04-17T20:18:02.359Z,7.61
2023-04-17T20:23:24.437Z,7.46
2023-04-17T20:28:46.532Z,7.40
2023-04-17T20:34:08.690Z,7.48
2023-04-17T20:39:30.925Z,7.54
2023-04-17T20:44:52.561Z,7.53
2023-04-17T20:50:14.563Z,7.34
2023-04-17T20:55:40.171Z,7.36
2023-04-17T21:01:03.318Z,7.26
2023-04-17T21:06:25.244Z,7.24
2023-04-17T21:11:47.293Z,7.10
2023-04-17T21:17:09.183Z,6.99
2023-04-17T21:22:31.418Z,7.09
2023-04-17T21:27:53.835Z,6.88
2023-04-17T21:33:15.551Z,6.91
2023-04-17T21:38:37.831Z,6.68
2023-04-17T21:44:04.399Z,6.52
2023-04-17T21:49:26.477Z,6.58
2023-04-17T21:54:48.381Z,6.54
2023-04-17T22:00:13.067Z,6.44
2023-04-17T22:05:35.176Z,6.44
2023-04-17T22:10:57.241Z,6.37
2023-04-17T22:16:18.717Z,6.28
2023-04-17T22:21:40.694Z,6.24
2023-04-17T22:27:03.237Z,6.16
2023-04-17T22:32:25.453Z,6.05
2023-04-17T22:37:47.503Z,5.95
2023-04-17T22:43:09.867Z,6.03
2023-04-17T22:48:31.704Z,6.16
2023-04-17T22:53:53.600Z,6.07
2023-04-17T22:59:15.641Z,6.01
2023-04-17T23:04:39.936Z,5.99
2023-04-17T23:10:01.998Z,5.92
2023-04-17T23:15:25.115Z,5.81
2023-04-17T23:20:47.196Z,5.76
2023-04-17T23:26:09.433Z,5.80
2023-04-17T23:31:31.354Z,5.74
2023-04-17T23:36:53.234Z,5.64
2023-04-17T23:42:16.554Z,5.61
2023-04-17T23:48:04.150Z,5.70
2023-04-17T23:53:26.147Z,5.51
2023-04-17T23:58:48.092Z,5.69
